Time;durP1;ratioP1;P1;durP2;ratioP2;P2;SDS_P1;SDS_P2;PMS_P1;PMS_P2;Temp;Humidity;BMP_temperature;BMP_pressure;BME280_temperature;BME280_humidity;BME280_pressure;Samples;Min_cycle;Max_cycle;Signal;HPM_P1;HPM_P2
2022/03/01 00:01:16;;;;;;;;;;;1.50;99.90;;;;;;4160366;28;19987;-55
2022/03/01 00:03:19;;;;;;;;;;;1.40;99.90;;;;;;4174818;28;19932;-54
2022/03/01 00:05:22;;;;;;;;;;;1.40;99.90;;;;;;4174990;28;20023;-55
2022/03/01 00:07:23;;;;;;;;;;;1.40;99.90;;;;;;4165799;28;19960;-55
2022/03/01 00:09:25;;;;;;;;;;;1.40;99.90;;;;;;4168928;28;19929;-56
2022/03/01 00:11:27;;;;;;;;;;;1.40;99.90;;;;;;4166414;28;19925;-56
2022/03/01 00:13:29;;;;;;;;;;;1.50;99.90;;;;;;4178243;28;19924;-55
2022/03/01 00:15:31;;;;;;;;;;;1.50;99.90;;;;;;4175426;28;20285;-55
2022/03/01 00:17:34;;;;;;;;;;;1.50;99.90;;;;;;4166576;28;19932;-55
2022/03/01 00:19:35;;;;;;;;;;;1.70;99.90;;;;;;4169995;28;19932;-54
2022/03/01 00:21:37;;;;;;;;;;;1.70;99.90;;;;;;4173730;28;19925;-55
2022/03/01 00:23:39;;;;;;;;;;;1.60;99.90;;;;;;4178186;28;19929;-55
2022/03/01 00:25:41;;;;;;;;;;;1.70;99.90;;;;;;4172045;28;19930;-55
2022/03/01 00:27:43;;;;;;;;;;;1.60;99.90;;;;;;4173279;28;19974;-55
2022/03/01 00:29:45;;;;;;;;;;;1.60;99.90;;;;;;4167995;28;20012;-55
2022/03/01 00:31:47;;;;;;;;;;;1.60;99.90;;;;;;4173097;28;19925;-55
2022/03/01 00:33:49;;;;;;;;;;;1.60;99.90;;;;;;4173448;28;20020;-56
2022/03/01 00:35:51;;;;;;;;;;;1.50;99.90;;;;;;4176755;28;19929;-55
2022/03/01 00:37:53;;;;;;;;;;;1.50;99.90;;;;;;4177380;28;20584;-55
2022/03/01 00:39:55;;;;;;;;;;;1.40;99.90;;;;;;4174975;28;19975;-53
2022/03/01 00:41:57;;;;;;;;;;;1.40;99.90;;;;;;4177782;28;19939;-55
2022/03/01 00:43:59;;;;;;;;;;;1.40;99.90;;;;;;4167037;28;19947;-55
2022/03/01 00:46:01;;;;;;;;;;;1.40;99.90;;;;;;4171857;28;19937;-55
2022/03/01 00:48:03;;;;;;;;;;;1.40;99.90;;;;;;4177804;28;19947;-55
2022/03/01 00:50:05;;;;;;;;;;;1.40;99.90;;;;;;4178649;28;19929;-55
2022/03/01 00:52:08;;;;;;;;;;;1.50;99.90;;;;;;4172058;28;20110;-56
2022/03/01 00:54:10;;;;;;;;;;;1.50;99.90;;;;;;4173473;28;19968;-56
2022/03/01 00:56:12;;;;;;;;;;;1.50;99.90;;;;;;4178030;28;19925;-55
2022/03/01 00:58:14;;;;;;;;;;;1.60;99.90;;;;;;4176603;28;20007;-56
2022/03/01 01:00:17;;;;;;;;;;;1.50;99.90;;;;;;4176238;28;19925;-56
2022/03/01 01:02:18;;;;;;;;;;;1.40;99.90;;;;;;4177599;28;20035;-55
2022/03/01 01:04:20;;;;;;;;;;;1.40;99.90;;;;;;4175444;28;19933;-55
2022/03/01 01:06:23;;;;;;;;;;;1.30;99.90;;;;;;4179062;28;19978;-56
2022/03/01 01:08:24;;;;;;;;;;;1.20;99.90;;;;;;4175582;28;19928;-54
2022/03/01 01:10:26;;;;;;;;;;;1.20;99.90;;;;;;4175706;28;19978;-55
2022/03/01 01:12:28;;;;;;;;;;;1.30;99.90;;;;;;4177686;28;19932;-54
2022/03/01 01:14:30;;;;;;;;;;;1.30;99.90;;;;;;4168229;28;20428;-56
2022/03/01 01:16:32;;;;;;;;;;;1.30;99.90;;;;;;4166799;28;19925;-55
2022/03/01 01:18:36;;;;;;;;;;;1.30;99.90;;;;;;4173315;28;19968;-56
2022/03/01 01:20:38;;;;;;;;;;;1.30;99.90;;;;;;4177390;28;19925;-55
2022/03/01 01:22:40;;;;;;;;;;;1.30;99.90;;;;;;4175186;28;19929;-56
2022/03/01 01:24:44;;;;;;;;;;;1.30;99.90;;;;;;4178591;28;19929;-55
2022/03/01 01:26:48;;;;;;;;;;;1.30;99.90;;;;;;4175613;28;20028;-55
2022/03/01 01:28:50;;;;;;;;;;;1.40;99.90;;;;;;4176769;28;19951;-55
2022/03/01 01:30:52;;;;;;;;;;;1.50;99.90;;;;;;4171542;28;19967;-55
2022/03/01 01:32:54;;;;;;;;;;;1.60;99.90;;;;;;4169693;28;19925;-56
2022/03/01 01:34:56;;;;;;;;;;;1.60;99.90;;;;;;4177204;28;20790;-55
2022/03/01 01:36:58;;;;;;;;;;;1.60;99.90;;;;;;4176720;28;19960;-55
2022/03/01 01:39:00;;;;;;;;;;;1.50;99.90;;;;;;4174806;28;19924;-55
2022/03/01 01:41:02;;;;;;;;;;;1.50;99.90;;;;;;4174451;28;19925;-56
2022/03/01 01:43:05;;;;;;;;;;;1.50;99.90;;;;;;4176934;28;20333;-55
2022/03/01 01:45:07;;;;;;;;;;;1.50;99.90;;;;;;4175076;28;19925;-55
2022/03/01 01:47:20;;;;;;;;;;;1.50;99.90;;;;;;4176442;28;19929;-55
2022/03/01 01:49:22;;;;;;;;;;;1.50;99.90;;;;;;4164529;28;19929;-55
2022/03/01 01:51:24;;;;;;;;;;;1.50;99.90;;;;;;4168069;28;19967;-56
2022/03/01 01:53:26;;;;;;;;;;;1.50;99.90;;;;;;4163117;28;19964;-55
2022/03/01 01:55:29;;;;;;;;;;;1.50;99.90;;;;;;4166899;28;19952;-55
2022/03/01 01:57:31;;;;;;;;;;;1.50;99.90;;;;;;4168095;28;19929;-56
2022/03/01 01:59:33;;;;;;;;;;;1.50;99.90;;;;;;4162696;28;20381;-55
2022/03/01 02:01:35;;;;;;;;;;;1.40;99.90;;;;;;4167472;28;20480;-55
2022/03/01 02:03:37;;;;;;;;;;;1.50;99.90;;;;;;4171123;28;19925;-55
2022/03/01 02:05:39;;;;;;;;;;;1.50;99.90;;;;;;4173798;28;20495;-55
2022/03/01 02:07:45;;;;;;;;;;;1.60;99.90;;;;;;4169910;28;19929;-55
2022/03/01 02:09:47;;;;;;;;;;;1.50;99.90;;;;;;4172125;28;19978;-55
2022/03/01 02:11:49;;;;;;;;;;;1.50;99.90;;;;;;4164308;28;19972;-55
2022/03/01 02:13:51;;;;;;;;;;;1.60;99.90;;;;;;4172342;28;20420;-55
2022/03/01 02:15:54;;;;;;;;;;;1.60;99.90;;;;;;4169571;28;19928;-55
2022/03/01 02:17:56;;;;;;;;;;;1.50;99.90;;;;;;4169233;28;19925;-55
2022/03/01 02:19:58;;;;;;;;;;;1.50;99.90;;;;;;4174051;28;19933;-55
2022/03/01 02:22:04;;;;;;;;;;;1.50;99.90;;;;;;4169778;28;20016;-55
2022/03/01 02:24:06;;;;;;;;;;;1.50;99.90;;;;;;4177220;28;19952;-55
2022/03/01 02:26:08;;;;;;;;;;;1.50;99.90;;;;;;4175381;28;20034;-55
2022/03/01 02:28:10;;;;;;;;;;;1.50;99.90;;;;;;4168238;28;19928;-55
2022/03/01 02:30:13;;;;;;;;;;;1.50;99.90;;;;;;4170040;28;19948;-55
2022/03/01 02:32:14;;;;;;;;;;;1.40;99.90;;;;;;4174851;28;19925;-55
2022/03/01 02:34:17;;;;;;;;;;;1.40;99.90;;;;;;4168653;28;20409;-55
2022/03/01 02:36:19;;;;;;;;;;;1.40;99.90;;;;;;4171097;28;19929;-55
2022/03/01 02:38:21;;;;;;;;;;;1.50;99.90;;;;;;4175795;28;20014;-55
2022/03/01 02:40:23;;;;;;;;;;;1.50;99.90;;;;;;4169317;28;20584;-55
2022/03/01 02:42:27;;;;;;;;;;;1.40;99.90;;;;;;4173974;28;19957;-56
2022/03/01 02:44:29;;;;;;;;;;;1.40;99.90;;;;;;4173872;28;19960;-56
2022/03/01 02:46:31;;;;;;;;;;;1.40;99.90;;;;;;4170598;28;19956;-55
2022/03/01 02:48:33;;;;;;;;;;;1.30;99.60;;;;;;4173694;28;19975;-56
2022/03/01 02:50:35;;;;;;;;;;;1.40;98.70;;;;;;4175717;28;19925;-56
2022/03/01 02:52:37;;;;;;;;;;;1.40;99.30;;;;;;4172756;28;19940;-55
2022/03/01 02:54:39;;;;;;;;;;;1.40;99.20;;;;;;4176556;28;19963;-55
2022/03/01 02:56:41;;;;;;;;;;;1.40;99.20;;;;;;4172359;28;19933;-56
2022/03/01 02:58:43;;;;;;;;;;;1.40;99.30;;;;;;4189610;28;19928;-56
2022/03/01 03:00:45;;;;;;;;;;;1.30;99.00;;;;;;4177083;28;19925;-55
2022/03/01 03:02:47;;;;;;;;;;;1.30;99.20;;;;;;4173770;28;19963;-55
2022/03/01 03:04:49;;;;;;;;;;;1.20;99.30;;;;;;4175501;28;20393;-56
2022/03/01 03:06:51;;;;;;;;;;;1.10;99.90;;;;;;4175713;28;20035;-55
2022/03/01 03:08:53;;;;;;;;;;;1.10;98.60;;;;;;4174224;28;20444;-55
2022/03/01 03:10:55;;;;;;;;;;;1.20;99.20;;;;;;4176489;28;19964;-56
2022/03/01 03:12:57;;;;;;;;;;;1.10;99.20;;;;;;4163842;28;20350;-55
2022/03/01 03:14:59;;;;;;;;;;;1.00;99.20;;;;;;4168540;28;20348;-55
2022/03/01 03:17:01;;;;;;;;;;;1.00;98.70;;;;;;4176654;28;19925;-55
2022/03/01 03:19:03;;;;;;;;;;;1.00;98.60;;;;;;4174906;28;19963;-54
2022/03/01 03:21:05;;;;;;;;;;;1.00;98.20;;;;;;4174686;28;19979;-55
2022/03/01 03:23:07;;;;;;;;;;;1.00;98.90;;;;;;4175786;28;19960;-55
2022/03/01 03:25:10;;;;;;;;;;;1.00;99.00;;;;;;4174604;28;19925;-55
2022/03/01 03:27:12;;;;;;;;;;;0.90;98.70;;;;;;4174959;28;20329;-56
2022/03/01 03:29:14;;;;;;;;;;;0.90;98.90;;;;;;4176549;28;19948;-56
2022/03/01 03:31:16;;;;;;;;;;;0.80;98.70;;;;;;4175773;28;19929;-56
2022/03/01 03:33:18;;;;;;;;;;;0.90;97.90;;;;;;4171753;28;19951;-56
2022/03/01 03:35:23;;;;;;;;;;;0.90;98.10;;;;;;4176836;28;19924;-55
2022/03/01 03:37:25;;;;;;;;;;;0.90;98.40;;;;;;4175686;28;19925;-56
2022/03/01 03:39:27;;;;;;;;;;;0.90;97.30;;;;;;4172800;28;20347;-55
2022/03/01 03:41:29;;;;;;;;;;;0.90;97.90;;;;;;4174598;28;19925;-55
2022/03/01 03:43:31;;;;;;;;;;;0.90;97.90;;;;;;4165878;28;19933;-54
2022/03/01 03:45:33;;;;;;;;;;;0.90;97.40;;;;;;4166924;28;19976;-55
2022/03/01 03:47:35;;;;;;;;;;;1.00;97.60;;;;;;4179842;28;19929;-55
2022/03/01 03:49:37;;;;;;;;;;;0.90;97.70;;;;;;4176706;28;19936;-55
2022/03/01 03:51:39;;;;;;;;;;;1.00;96.70;;;;;;4178118;28;19928;-54
2022/03/01 03:53:41;;;;;;;;;;;1.00;97.50;;;;;;4176533;28;20359;-56
2022/03/01 03:55:43;;;;;;;;;;;0.90;97.80;;;;;;4173078;28;19980;-55
2022/03/01 03:57:45;;;;;;;;;;;0.90;97.50;;;;;;4169049;28;19975;-56
2022/03/01 03:59:47;;;;;;;;;;;0.90;97.50;;;;;;4179469;28;19928;-54
2022/03/01 04:01:49;;;;;;;;;;;0.90;98.10;;;;;;4177182;28;20285;-55
2022/03/01 04:03:51;;;;;;;;;;;0.90;98.30;;;;;;4166533;28;19933;-56
2022/03/01 04:05:53;;;;;;;;;;;0.80;98.40;;;;;;4170913;28;19936;-55
2022/03/01 04:07:55;;;;;;;;;;;0.80;98.40;;;;;;4175194;28;19925;-55
2022/03/01 04:09:57;;;;;;;;;;;0.90;98.70;;;;;;4166538;28;20477;-55
2022/03/01 04:11:59;;;;;;;;;;;0.90;99.00;;;;;;4173692;28;19925;-54
2022/03/01 04:14:02;;;;;;;;;;;0.90;98.20;;;;;;4173638;28;19941;-56
2022/03/01 04:16:04;;;;;;;;;;;0.90;98.70;;;;;;4177916;28;19928;-55
2022/03/01 04:18:06;;;;;;;;;;;0.90;98.60;;;;;;4172575;28;19936;-54
2022/03/01 04:20:08;;;;;;;;;;;1.00;98.20;;;;;;4172570;28;20023;-55
2022/03/01 04:22:10;;;;;;;;;;;1.00;98.50;;;;;;4178075;28;20305;-56
2022/03/01 04:24:12;;;;;;;;;;;0.90;98.50;;;;;;4168202;28;19925;-56
2022/03/01 04:26:15;;;;;;;;;;;1.00;98.50;;;;;;4176273;28;19991;-54
2022/03/01 04:28:18;;;;;;;;;;;1.00;98.40;;;;;;4176064;28;20034;-56
2022/03/01 04:30:19;;;;;;;;;;;1.00;99.00;;;;;;4178947;28;19929;-56
2022/03/01 04:32:21;;;;;;;;;;;1.10;98.50;;;;;;4171359;28;19972;-55
2022/03/01 04:34:23;;;;;;;;;;;1.10;98.40;;;;;;4178011;28;19933;-56
2022/03/01 04:36:25;;;;;;;;;;;1.00;99.00;;;;;;4178358;28;20435;-56
2022/03/01 04:38:28;;;;;;;;;;;1.00;98.80;;;;;;4172327;28;19929;-55
2022/03/01 04:40:30;;;;;;;;;;;1.00;99.20;;;;;;4178912;28;19925;-55
2022/03/01 04:42:32;;;;;;;;;;;1.10;99.10;;;;;;4178420;28;19939;-54
2022/03/01 04:44:34;;;;;;;;;;;1.10;99.30;;;;;;4176097;28;19971;-56
2022/03/01 04:46:36;;;;;;;;;;;1.00;99.30;;;;;;4179339;28;19929;-55
2022/03/01 04:48:38;;;;;;;;;;;1.10;99.40;;;;;;4176431;28;19932;-55
2022/03/01 04:50:40;;;;;;;;;;;1.10;99.20;;;;;;4176228;28;20019;-56
2022/03/01 04:52:43;;;;;;;;;;;1.10;99.40;;;;;;4179130;28;19940;-56
2022/03/01 04:54:46;;;;;;;;;;;1.10;99.20;;;;;;4176732;28;19935;-56
2022/03/01 04:56:48;;;;;;;;;;;1.10;99.00;;;;;;4176800;28;19929;-56
2022/03/01 04:58:50;;;;;;;;;;;1.10;99.30;;;;;;4177941;28;19924;-55
2022/03/01 05:00:54;;;;;;;;;;;1.10;99.90;;;;;;4177242;28;19929;-55
2022/03/01 05:02:57;;;;;;;;;;;1.10;99.90;;;;;;4177349;28;19924;-55
2022/03/01 05:04:59;;;;;;;;;;;1.10;99.90;;;;;;4178744;28;19933;-55
2022/03/01 05:07:01;;;;;;;;;;;1.20;99.90;;;;;;4175746;28;20191;-56
2022/03/01 05:09:03;;;;;;;;;;;1.20;99.90;;;;;;4176060;28;19925;-56
2022/03/01 05:11:06;;;;;;;;;;;1.20;99.90;;;;;;4179085;28;19929;-54
2022/03/01 05:13:08;;;;;;;;;;;1.20;99.90;;;;;;4176459;28;19968;-55
2022/03/01 05:15:10;;;;;;;;;;;1.20;99.90;;;;;;4175674;28;19929;-56
2022/03/01 05:17:12;;;;;;;;;;;1.20;99.90;;;;;;4178840;28;19959;-55
2022/03/01 05:19:14;;;;;;;;;;;1.30;99.90;;;;;;4174782;28;19960;-55
2022/03/01 05:21:16;;;;;;;;;;;1.30;99.90;;;;;;4177294;28;19929;-56
2022/03/01 05:23:18;;;;;;;;;;;1.30;99.90;;;;;;4178256;28;19933;-55
2022/03/01 05:25:22;;;;;;;;;;;1.30;99.90;;;;;;4175773;28;20355;-54
2022/03/01 05:27:24;;;;;;;;;;;1.30;99.80;;;;;;4175441;28;19964;-54
2022/03/01 05:29:26;;;;;;;;;;;1.30;99.90;;;;;;4163577;28;19994;-55
2022/03/01 05:31:28;;;;;;;;;;;1.30;99.90;;;;;;4171286;28;19964;-55
2022/03/01 05:33:30;;;;;;;;;;;1.20;99.90;;;;;;4163319;28;20564;-56
2022/03/01 05:35:32;;;;;;;;;;;1.20;99.90;;;;;;4176805;28;19929;-54
2022/03/01 05:37:34;;;;;;;;;;;1.20;99.90;;;;;;4175280;28;19968;-55
2022/03/01 05:39:36;;;;;;;;;;;1.10;99.90;;;;;;4177424;28;20331;-55
2022/03/01 05:41:38;;;;;;;;;;;1.10;99.90;;;;;;4168016;28;19929;-55
2022/03/01 05:43:40;;;;;;;;;;;1.10;99.90;;;;;;4170215;28;19925;-56
2022/03/01 05:45:42;;;;;;;;;;;1.10;99.90;;;;;;4177126;28;19963;-56
2022/03/01 05:47:43;;;;;;;;;;;1.20;99.90;;;;;;4170042;28;19928;-55
2022/03/01 05:49:45;;;;;;;;;;;1.20;99.90;;;;;;4173512;28;19925;-55
2022/03/01 05:51:47;;;;;;;;;;;1.20;99.90;;;;;;4174699;28;19925;-55
2022/03/01 05:53:53;;;;;;;;;;;1.20;99.90;;;;;;4172302;28;20297;-55
2022/03/01 05:55:55;;;;;;;;;;;1.20;99.90;;;;;;4169549;28;19925;-56
2022/03/01 05:57:57;;;;;;;;;;;1.20;99.90;;;;;;4177944;28;20381;-55
2022/03/01 05:59:59;;;;;;;;;;;1.20;99.90;;;;;;4169216;28;19925;-56
2022/03/01 06:02:01;;;;;;;;;;;1.20;99.90;;;;;;4171141;28;19928;-55
2022/03/01 06:04:03;;;;;;;;;;;1.20;99.90;;;;;;4168248;28;19982;-56
2022/03/01 06:06:05;;;;;;;;;;;1.20;99.90;;;;;;4176193;28;19929;-55
2022/03/01 06:08:07;;;;;;;;;;;1.20;99.90;;;;;;4173076;28;20019;-55
2022/03/01 06:10:09;;;;;;;;;;;1.20;99.90;;;;;;4170637;28;19982;-55
2022/03/01 06:12:11;;;;;;;;;;;1.30;99.90;;;;;;4175813;28;19968;-55
2022/03/01 06:14:13;;;;;;;;;;;1.30;99.90;;;;;;4177268;28;20513;-55
2022/03/01 06:16:15;;;;;;;;;;;1.30;99.90;;;;;;4177523;28;20014;-55
2022/03/01 06:18:17;;;;;;;;;;;1.30;99.90;;;;;;4175080;28;19932;-56
2022/03/01 06:20:19;;;;;;;;;;;1.30;99.90;;;;;;4169816;28;20415;-55
2022/03/01 06:22:21;;;;;;;;;;;1.30;99.90;;;;;;4176587;28;22199;-54
2022/03/01 06:24:23;;;;;;;;;;;1.30;99.90;;;;;;4175463;28;19925;-55
2022/03/01 06:26:25;;;;;;;;;;;1.30;99.90;;;;;;4174462;28;20439;-55
2022/03/01 06:28:27;;;;;;;;;;;1.40;99.90;;;;;;4177748;28;19975;-55
2022/03/01 06:30:29;;;;;;;;;;;1.40;99.90;;;;;;4173636;28;19960;-57
2022/03/01 06:32:31;;;;;;;;;;;1.40;99.90;;;;;;4174326;28;19961;-57
2022/03/01 06:34:34;;;;;;;;;;;1.40;99.90;;;;;;4176508;28;19933;-56
2022/03/01 06:36:54;;;;;;;;;;;1.40;99.90;;;;;;4174691;28;19936;-56
2022/03/01 06:38:56;;;;;;;;;;;1.30;99.90;;;;;;4175975;28;19929;-57
2022/03/01 06:40:58;;;;;;;;;;;1.30;99.90;;;;;;4175148;28;19955;-57
2022/03/01 06:43:00;;;;;;;;;;;1.40;99.90;;;;;;4174602;28;19952;-57
2022/03/01 06:45:02;;;;;;;;;;;1.50;99.90;;;;;;4174646;28;19948;-57
2022/03/01 06:47:05;;;;;;;;;;;1.50;99.90;;;;;;4177368;28;20221;-57
2022/03/01 06:49:06;;;;;;;;;;;1.50;99.90;;;;;;4172783;28;19928;-56
2022/03/01 06:51:08;;;;;;;;;;;1.50;99.90;;;;;;4176932;28;19929;-56
2022/03/01 06:53:13;;;;;;;;;;;1.50;99.90;;;;;;4177011;28;20413;-56
2022/03/01 06:55:15;;;;;;;;;;;1.50;99.90;;;;;;4172623;28;19983;-56
2022/03/01 06:57:18;;;;;;;;;;;1.50;99.90;;;;;;4175381;28;19929;-57
2022/03/01 06:59:20;;;;;;;;;;;1.50;99.90;;;;;;4163956;28;19925;-57
2022/03/01 07:01:22;;;;;;;;;;;1.60;99.90;;;;;;4171224;28;19982;-57
2022/03/01 07:03:24;;;;;;;;;;;1.60;99.90;;;;;;4175226;28;20141;-56
2022/03/01 07:05:26;;;;;;;;;;;1.50;99.90;;;;;;4175121;28;20447;-57
2022/03/01 07:07:28;;;;;;;;;;;1.60;99.90;;;;;;4173711;28;20019;-56
2022/03/01 07:09:30;;;;;;;;;;;1.60;99.90;;;;;;4176364;28;19954;-57
2022/03/01 07:11:32;;;;;;;;;;;1.50;99.90;;;;;;4175790;28;20400;-57
2022/03/01 07:13:34;;;;;;;;;;;1.60;99.90;;;;;;4174210;28;19947;-56
2022/03/01 07:15:37;;;;;;;;;;;1.60;99.90;;;;;;4177066;28;19925;-57
2022/03/01 07:17:39;;;;;;;;;;;1.60;99.90;;;;;;4174225;28;20327;-56
2022/03/01 07:19:41;;;;;;;;;;;1.60;99.90;;;;;;4175316;28;20364;-57
2022/03/01 07:21:43;;;;;;;;;;;1.60;99.90;;;;;;4175935;28;20072;-56
2022/03/01 07:23:45;;;;;;;;;;;1.60;99.90;;;;;;4175022;28;19940;-57
2022/03/01 07:25:47;;;;;;;;;;;1.60;99.90;;;;;;4175298;28;20312;-57
2022/03/01 07:27:50;;;;;;;;;;;1.60;99.90;;;;;;4161453;28;19936;-58
2022/03/01 07:29:52;;;;;;;;;;;1.70;99.90;;;;;;4167162;28;19929;-56
2022/03/01 07:31:54;;;;;;;;;;;1.70;99.90;;;;;;4167701;28;19958;-57
2022/03/01 07:33:57;;;;;;;;;;;1.70;99.90;;;;;;4162568;28;19960;-57
2022/03/01 07:36:00;;;;;;;;;;;1.80;99.90;;;;;;4170222;28;20321;-56
2022/03/01 07:38:02;;;;;;;;;;;1.80;99.90;;;;;;4165773;28;19975;-56
2022/03/01 07:40:07;;;;;;;;;;;1.80;99.90;;;;;;4166928;28;19987;-56
2022/03/01 07:42:09;;;;;;;;;;;1.80;99.90;;;;;;4171026;28;20019;-57
2022/03/01 07:44:10;;;;;;;;;;;1.90;99.90;;;;;;4166516;28;19948;-57
2022/03/01 07:46:13;;;;;;;;;;;1.90;99.90;;;;;;4160381;28;19931;-56
2022/03/01 07:48:15;;;;;;;;;;;1.90;99.90;;;;;;4172846;28;19936;-57
2022/03/01 07:50:17;;;;;;;;;;;1.90;99.90;;;;;;4175291;28;20468;-57
2022/03/01 07:52:19;;;;;;;;;;;1.90;99.90;;;;;;4168864;28;19967;-57
2022/03/01 07:54:23;;;;;;;;;;;1.90;99.90;;;;;;4173819;28;19963;-58
2022/03/01 07:56:25;;;;;;;;;;;1.90;99.90;;;;;;4174958;28;20011;-56
2022/03/01 07:58:27;;;;;;;;;;;1.90;99.90;;;;;;4175697;28;19978;-57
2022/03/01 08:00:29;;;;;;;;;;;1.90;99.90;;;;;;4174908;28;19929;-57
2022/03/01 08:02:31;;;;;;;;;;;1.90;99.90;;;;;;4173998;28;19925;-57
2022/03/01 08:04:34;;;;;;;;;;;2.00;99.90;;;;;;4172018;28;19936;-58
2022/03/01 08:06:35;;;;;;;;;;;2.00;99.90;;;;;;4172354;28;19986;-57
2022/03/01 08:08:39;;;;;;;;;;;2.00;99.90;;;;;;4168746;28;19960;-57
2022/03/01 08:10:41;;;;;;;;;;;1.90;99.90;;;;;;4176878;28;20725;-56
2022/03/01 08:13:03;;;;;;;;;;;1.90;99.90;;;;;;4175215;28;20030;-56
2022/03/01 08:15:05;;;;;;;;;;;1.90;99.90;;;;;;4169012;28;19925;-57
2022/03/01 08:17:07;;;;;;;;;;;2.00;99.90;;;;;;4174645;28;19935;-57
2022/03/01 08:19:09;;;;;;;;;;;2.00;99.90;;;;;;4172953;28;20015;-57
2022/03/01 08:21:11;;;;;;;;;;;2.00;99.90;;;;;;4173761;28;20071;-56
2022/03/01 08:23:13;;;;;;;;;;;2.10;99.90;;;;;;4176578;28;19968;-56
2022/03/01 08:25:15;;;;;;;;;;;2.10;99.90;;;;;;4181989;28;19983;-58
2022/03/01 08:27:17;;;;;;;;;;;2.00;99.90;;;;;;4164453;28;20404;-57
2022/03/01 08:29:19;;;;;;;;;;;2.10;99.90;;;;;;4174179;28;20325;-57
2022/03/01 08:31:21;;;;;;;;;;;2.10;99.90;;;;;;4175761;28;19983;-57
2022/03/01 08:33:24;;;;;;;;;;;2.10;99.90;;;;;;4175752;28;20012;-57
2022/03/01 08:35:27;;;;;;;;;;;2.10;99.90;;;;;;4179493;28;20024;-57
2022/03/01 08:37:29;;;;;;;;;;;2.10;99.90;;;;;;4176523;28;19957;-57
2022/03/01 08:39:33;;;;;;;;;;;2.20;99.90;;;;;;4175713;28;19932;-57
2022/03/01 08:41:35;;;;;;;;;;;2.20;99.90;;;;;;4178685;28;19925;-56
2022/03/01 08:43:36;;;;;;;;;;;2.10;99.90;;;;;;4178004;28;19932;-57
2022/03/01 08:45:39;;;;;;;;;;;2.20;99.90;;;;;;4175892;28;19976;-57
2022/03/01 08:47:43;;;;;;;;;;;2.30;99.90;;;;;;4179127;28;20443;-56
2022/03/01 08:49:45;;;;;;;;;;;2.30;99.90;;;;;;4177098;28;19925;-57
2022/03/01 08:51:47;;;;;;;;;;;2.30;99.90;;;;;;4177567;28;19932;-57
2022/03/01 08:53:50;;;;;;;;;;;2.40;99.90;;;;;;4178545;28;19929;-57
2022/03/01 08:55:53;;;;;;;;;;;2.40;99.90;;;;;;4177029;28;19924;-57
2022/03/01 08:57:56;;;;;;;;;;;2.50;99.90;;;;;;4177909;28;19991;-57
2022/03/01 08:59:58;;;;;;;;;;;2.60;99.90;;;;;;4149861;28;19925;-56
2022/03/01 09:01:59;;;;;;;;;;;2.60;99.90;;;;;;4170788;28;19936;-58
2022/03/01 09:04:02;;;;;;;;;;;2.60;99.90;;;;;;4177451;28;19935;-57
2022/03/01 09:06:05;;;;;;;;;;;2.60;99.90;;;;;;4177334;28;19932;-57
2022/03/01 09:08:09;;;;;;;;;;;2.70;99.90;;;;;;4176822;28;19951;-56
2022/03/01 09:10:11;;;;;;;;;;;2.70;99.90;;;;;;4179253;28;19960;-58
2022/03/01 09:12:13;;;;;;;;;;;2.70;99.90;;;;;;4176335;28;19929;-56
2022/03/01 09:14:15;;;;;;;;;;;2.80;99.90;;;;;;4177074;28;19925;-57
2022/03/01 09:16:17;;;;;;;;;;;2.80;99.90;;;;;;4162983;28;19925;-57
2022/03/01 09:18:21;;;;;;;;;;;2.80;99.90;;;;;;4175902;28;19925;-56
2022/03/01 09:20:23;;;;;;;;;;;2.90;99.90;;;;;;4177311;28;19928;-56
2022/03/01 09:22:25;;;;;;;;;;;2.80;99.90;;;;;;4178175;28;19925;-56
2022/03/01 09:24:27;;;;;;;;;;;2.80;99.90;;;;;;4176169;28;19928;-57
2022/03/01 09:26:29;;;;;;;;;;;2.80;99.90;;;;;;4176867;28;19925;-56
2022/03/01 09:28:31;;;;;;;;;;;2.90;99.90;;;;;;4166235;28;19952;-57
2022/03/01 09:30:34;;;;;;;;;;;3.00;99.90;;;;;;4173530;28;20044;-57
2022/03/01 09:32:36;;;;;;;;;;;3.00;99.90;;;;;;4167436;28;19925;-57
2022/03/01 09:34:38;;;;;;;;;;;3.00;99.90;;;;;;4162782;28;20377;-57
2022/03/01 09:36:39;;;;;;;;;;;3.10;99.90;;;;;;4174834;28;19968;-58
2022/03/01 09:38:42;;;;;;;;;;;3.00;99.90;;;;;;4164413;28;19968;-58
2022/03/01 09:40:47;;;;;;;;;;;2.90;99.90;;;;;;4178332;28;19928;-57
2022/03/01 09:42:51;;;;;;;;;;;2.90;99.90;;;;;;4176412;28;20389;-56
2022/03/01 09:44:54;;;;;;;;;;;2.90;99.90;;;;;;4166550;28;20016;-57
2022/03/01 09:46:56;;;;;;;;;;;2.90;99.90;;;;;;4172017;28;19982;-57
2022/03/01 09:48:58;;;;;;;;;;;3.00;99.90;;;;;;4173114;28;20509;-56
2022/03/01 09:51:00;;;;;;;;;;;3.00;99.90;;;;;;4168591;28;19925;-56
2022/03/01 09:53:02;;;;;;;;;;;3.10;99.90;;;;;;4176951;28;19994;-57
2022/03/01 09:55:05;;;;;;;;;;;3.00;99.90;;;;;;4175638;28;20031;-57
2022/03/01 09:57:14;;;;;;;;;;;3.10;99.90;;;;;;4167358;28;20419;-57
2022/03/01 09:59:15;;;;;;;;;;;3.10;99.90;;;;;;4175227;28;19929;-56
2022/03/01 10:01:17;;;;;;;;;;;3.10;99.90;;;;;;4173698;28;19947;-57
2022/03/01 10:03:20;;;;;;;;;;;3.20;99.90;;;;;;4176169;28;19964;-57
2022/03/01 10:05:39;;;;;;;;;;;3.20;99.90;;;;;;4176854;28;19929;-57
2022/03/01 10:07:44;;;;;;;;;;;3.20;99.90;;;;;;4176255;28;19986;-57
2022/03/01 10:09:46;;;;;;;;;;;3.20;99.90;;;;;;4175050;28;19925;-57
2022/03/01 10:11:48;;;;;;;;;;;3.20;99.90;;;;;;4178077;28;20423;-56
2022/03/01 10:13:56;;;;;;;;;;;3.30;99.90;;;;;;4175078;28;19932;-58
2022/03/01 10:16:27;;;;;;;;;;;3.30;99.90;;;;;;4176072;28;20438;-56
2022/03/01 10:18:31;;;;;;;;;;;3.30;99.90;;;;;;4167995;28;19932;-57
2022/03/01 10:20:32;;;;;;;;;;;3.30;99.90;;;;;;4174320;28;19971;-57
2022/03/01 10:22:44;;;;;;;;;;;3.30;99.90;;;;;;4174488;28;20648;-57
2022/03/01 10:24:48;;;;;;;;;;;3.40;99.90;;;;;;4158691;28;19936;-56
2022/03/01 10:26:54;;;;;;;;;;;3.60;99.90;;;;;;4175091;28;20439;-58
2022/03/01 10:29:12;;;;;;;;;;;3.60;99.90;;;;;;4174790;28;19940;-57
2022/03/01 10:31:49;;;;;;;;;;;3.80;99.90;;;;;;4174876;28;19940;-56
2022/03/01 10:33:55;;;;;;;;;;;4.00;99.90;;;;;;4165206;28;19935;-57
2022/03/01 10:35:58;;;;;;;;;;;4.20;99.90;;;;;;4174649;28;19925;-57
2022/03/01 10:38:01;;;;;;;;;;;4.00;98.60;;;;;;4174408;28;20192;-56
2022/03/01 10:40:18;;;;;;;;;;;3.80;99.50;;;;;;4174516;28;19931;-57
2022/03/01 10:42:26;;;;;;;;;;;3.90;99.60;;;;;;4157890;28;19929;-57
2022/03/01 10:44:29;;;;;;;;;;;3.90;99.20;;;;;;4174805;28;19924;-57
2022/03/01 10:46:41;;;;;;;;;;;4.00;99.50;;;;;;4174914;28;20290;-56
2022/03/01 10:48:43;;;;;;;;;;;4.00;99.70;;;;;;4176869;28;19932;-57
2022/03/01 10:50:56;;;;;;;;;;;4.20;99.20;;;;;;4174230;28;19959;-57
2022/03/01 10:52:58;;;;;;;;;;;4.20;98.70;;;;;;4174755;28;19952;-58
2022/03/01 10:55:00;;;;;;;;;;;4.20;99.40;;;;;;4169497;28;19929;-58
2022/03/01 10:57:04;;;;;;;;;;;4.30;99.20;;;;;;4169465;28;19972;-57
2022/03/01 10:59:06;;;;;;;;;;;4.40;99.80;;;;;;4175131;28;19929;-58
2022/03/01 11:01:09;;;;;;;;;;;4.40;98.30;;;;;;4177060;28;19955;-57
2022/03/01 11:03:11;;;;;;;;;;;4.50;98.70;;;;;;4168518;28;19928;-57
2022/03/01 11:05:13;;;;;;;;;;;4.50;97.50;;;;;;4164230;28;21732;-56
2022/03/01 11:07:15;;;;;;;;;;;4.60;97.80;;;;;;4176388;28;19924;-58
2022/03/01 11:09:18;;;;;;;;;;;4.70;97.50;;;;;;4173002;28;19974;-58
2022/03/01 11:11:21;;;;;;;;;;;4.70;98.10;;;;;;4175848;28;20448;-57
2022/03/01 11:13:25;;;;;;;;;;;4.60;97.70;;;;;;4167285;28;19933;-57
2022/03/01 11:15:50;;;;;;;;;;;4.60;97.60;;;;;;4169399;28;19998;-57
2022/03/01 11:18:00;;;;;;;;;;;4.60;98.10;;;;;;4155206;28;19929;-57
2022/03/01 11:20:14;;;;;;;;;;;4.70;98.00;;;;;;4163757;28;19990;-58
2022/03/01 11:22:21;;;;;;;;;;;4.70;98.20;;;;;;4165588;28;19960;-56
2022/03/01 11:24:24;;;;;;;;;;;4.90;97.70;;;;;;4165525;28;19932;-58
2022/03/01 11:26:34;;;;;;;;;;;5.10;97.60;;;;;;4163954;28;19925;-57
2022/03/01 11:28:42;;;;;;;;;;;5.20;98.00;;;;;;4173315;28;19971;-58
2022/03/01 11:30:47;;;;;;;;;;;5.10;97.00;;;;;;4173804;28;19983;-57
2022/03/01 11:32:54;;;;;;;;;;;5.00;97.30;;;;;;4167159;28;19932;-57
2022/03/01 11:35:01;;;;;;;;;;;5.20;97.60;;;;;;4166963;28;19928;-58
2022/03/01 11:37:03;;;;;;;;;;;5.40;97.30;;;;;;4173647;28;19929;-58
2022/03/01 11:39:12;;;;;;;;;;;5.60;96.80;;;;;;4169896;28;19929;-58
2022/03/01 11:41:19;;;;;;;;;;;5.70;95.90;;;;;;4172161;28;19999;-58
2022/03/01 11:43:23;;;;;;;;;;;5.70;95.40;;;;;;4169147;28;20393;-58
2022/03/01 11:45:31;;;;;;;;;;;5.70;95.80;;;;;;4170861;28;19978;-57
2022/03/01 11:47:34;;;;;;;;;;;5.60;96.00;;;;;;4172767;28;19974;-58
2022/03/01 11:49:50;;;;;;;;;;;5.50;95.50;;;;;;4173132;28;19932;-58
2022/03/01 11:51:55;;;;;;;;;;;5.50;95.40;;;;;;4179105;28;19935;-59
2022/03/01 11:53:57;;;;;;;;;;;5.70;96.00;;;;;;4171332;28;19925;-57
2022/03/01 11:56:01;;;;;;;;;;;5.80;95.40;;;;;;4165463;28;20002;-57
2022/03/01 11:58:03;;;;;;;;;;;5.90;94.90;;;;;;4166338;28;20445;-58
2022/03/01 12:00:06;;;;;;;;;;;5.70;95.60;;;;;;4172993;28;19965;-58
2022/03/01 12:02:08;;;;;;;;;;;5.50;96.00;;;;;;4165447;28;19932;-58
2022/03/01 12:04:10;;;;;;;;;;;5.60;96.50;;;;;;4169634;28;20043;-58
2022/03/01 12:06:12;;;;;;;;;;;5.60;96.50;;;;;;4163666;28;20478;-58
2022/03/01 12:08:14;;;;;;;;;;;5.70;96.30;;;;;;4173485;28;19971;-57